sensor_id;sensor_type;location;lat;lon;timestamp;temperature;humidity
17879;DHT22;9065;51.050;13.758;2022-10-16T00:00:31;15.30;99.90
17879;DHT22;9065;51.050;13.758;2022-10-16T00:02:57;15.30;99.90
17879;DHT22;9065;51.050;13.758;2022-10-16T00:05:24;15.30;99.90
17879;DHT22;9065;51.050;13.758;2022-10-16T00:07:52;15.20;99.90
17879;DHT22;9065;51.050;13.758;2022-10-16T00:10:19;15.20;99.90
17879;DHT22;9065;51.050;13.758;2022-10-16T00:12:46;15.20;99.90
17879;DHT22;9065;51.050;13.758;2022-10-16T00:15:13;15.20;99.90
17879;DHT22;9065;51.050;13.758;2022-10-16T00:17:40;15.20;99.90
17879;DHT22;9065;51.050;13.758;2022-10-16T00:20:07;15.30;99.90
17879;DHT22;9065;51.050;13.758;2022-10-16T00:22:34;15.30;99.90
17879;DHT22;9065;51.050;13.758;2022-10-16T00:25:02;15.30;99.90
17879;DHT22;9065;51.050;13.758;2022-10-16T00:27:29;15.30;99.90
17879;DHT22;9065;51.050;13.758;2022-10-16T00:29:56;15.30;99.90
17879;DHT22;9065;51.050;13.758;2022-10-16T00:32:23;15.30;99.90
17879;DHT22;9065;51.050;13.758;2022-10-16T00:34:51;15.40;99.90
17879;DHT22;9065;51.050;13.758;2022-10-16T00:37:20;15.30;99.90
17879;DHT22;9065;51.050;13.758;2022-10-16T00:39:47;15.40;99.90
17879;DHT22;9065;51.050;13.758;2022-10-16T00:42:17;15.40;99.90
17879;DHT22;9065;51.050;13.758;2022-10-16T00:44:50;15.40;99.90
17879;DHT22;9065;51.050;13.758;2022-10-16T00:47:21;15.40;99.90
17879;DHT22;9065;51.050;13.758;2022-10-16T00:49:50;15.40;99.90
17879;DHT22;9065;51.050;13.758;2022-10-16T00:52:18;15.40;99.90
17879;DHT22;9065;51.050;13.758;2022-10-16T00:54:47;15.30;99.90
17879;DHT22;9065;51.050;13.758;2022-10-16T00:57:17;15.30;99.90
17879;DHT22;9065;51.050;13.758;2022-10-16T00:59:43;15.30;99.90
17879;DHT22;9065;51.050;13.758;2022-10-16T01:02:12;15.20;99.90
17879;DHT22;9065;51.050;13.758;2022-10-16T01:04:41;15.20;99.90
17879;DHT22;9065;51.050;13.758;2022-10-16T01:07:14;15.20;99.90
17879;DHT22;9065;51.050;13.758;2022-10-16T01:09:50;15.20;99.90
17879;DHT22;9065;51.050;13.758;2022-10-16T01:12:26;15.20;99.90
17879;DHT22;9065;51.050;13.758;2022-10-16T01:14:59;15.20;99.90
17879;DHT22;9065;51.050;13.758;2022-10-16T01:17:33;15.30;99.90
17879;DHT22;9065;51.050;13.758;2022-10-16T01:20:09;15.30;99.90
17879;DHT22;9065;51.050;13.758;2022-10-16T01:22:47;15.30;99.90
17879;DHT22;9065;51.050;13.758;2022-10-16T01:25:19;15.30;99.90
17879;DHT22;9065;51.050;13.758;2022-10-16T01:27:49;15.30;99.90
17879;DHT22;9065;51.050;13.758;2022-10-16T01:30:21;15.30;99.90
17879;DHT22;9065;51.050;13.758;2022-10-16T01:32:52;15.30;99.90
17879;DHT22;9065;51.050;13.758;2022-10-16T01:35:25;15.30;99.90
17879;DHT22;9065;51.050;13.758;2022-10-16T01:37:58;15.30;99.90
17879;DHT22;9065;51.050;13.758;2022-10-16T01:40:28;15.40;99.90
17879;DHT22;9065;51.050;13.758;2022-10-16T01:43:01;15.40;99.90
17879;DHT22;9065;51.050;13.758;2022-10-16T01:45:30;15.40;99.90
17879;DHT22;9065;51.050;13.758;2022-10-16T01:47:59;15.40;99.90
17879;DHT22;9065;51.050;13.758;2022-10-16T01:50:31;15.40;99.90
17879;DHT22;9065;51.050;13.758;2022-10-16T01:53:02;15.40;99.90
17879;DHT22;9065;51.050;13.758;2022-10-16T01:55:33;15.50;99.90
17879;DHT22;9065;51.050;13.758;2022-10-16T01:58:02;15.50;99.90
17879;DHT22;9065;51.050;13.758;2022-10-16T02:00:31;15.50;99.90
17879;DHT22;9065;51.050;13.758;2022-10-16T02:03:01;15.50;99.90
17879;DHT22;9065;51.050;13.758;2022-10-16T02:05:32;15.50;99.90
17879;DHT22;9065;51.050;13.758;2022-10-16T02:08:00;15.50;99.90
17879;DHT22;9065;51.050;13.758;2022-10-16T02:10:27;15.50;99.90
17879;DHT22;9065;51.050;13.758;2022-10-16T02:12:59;15.50;99.90
17879;DHT22;9065;51.050;13.758;2022-10-16T02:15:30;15.50;99.90
17879;DHT22;9065;51.050;13.758;2022-10-16T02:17:57;15.50;99.90
17879;DHT22;9065;51.050;13.758;2022-10-16T02:20:27;15.50;99.90
17879;DHT22;9065;51.050;13.758;2022-10-16T02:22:57;15.50;99.90
17879;DHT22;9065;51.050;13.758;2022-10-16T02:25:35;15.50;99.90
17879;DHT22;9065;51.050;13.758;2022-10-16T02:28:08;15.60;99.90
17879;DHT22;9065;51.050;13.758;2022-10-16T02:30:44;15.60;99.90
17879;DHT22;9065;51.050;13.758;2022-10-16T02:33:14;15.60;99.90
17879;DHT22;9065;51.050;13.758;2022-10-16T02:35:43;15.60;99.90
17879;DHT22;9065;51.050;13.758;2022-10-16T02:38:11;15.70;99.90
17879;DHT22;9065;51.050;13.758;2022-10-16T02:40:39;15.70;99.90
17879;DHT22;9065;51.050;13.758;2022-10-16T02:43:06;15.70;99.90
17879;DHT22;9065;51.050;13.758;2022-10-16T02:45:34;15.70;99.90
17879;DHT22;9065;51.050;13.758;2022-10-16T02:48:02;15.80;99.90
17879;DHT22;9065;51.050;13.758;2022-10-16T02:50:29;15.70;99.90
17879;DHT22;9065;51.050;13.758;2022-10-16T02:52:56;15.80;99.90
17879;DHT22;9065;51.050;13.758;2022-10-16T02:55:22;15.90;99.90
17879;DHT22;9065;51.050;13.758;2022-10-16T02:57:49;15.90;99.90
17879;DHT22;9065;51.050;13.758;2022-10-16T03:00:17;15.90;99.90
17879;DHT22;9065;51.050;13.758;2022-10-16T03:02:44;15.90;99.90
17879;DHT22;9065;51.050;13.758;2022-10-16T03:05:12;15.90;99.90
17879;DHT22;9065;51.050;13.758;2022-10-16T03:07:43;15.90;99.90
17879;DHT22;9065;51.050;13.758;2022-10-16T03:10:10;15.90;99.90
17879;DHT22;9065;51.050;13.758;2022-10-16T03:12:37;15.90;99.90
17879;DHT22;9065;51.050;13.758;2022-10-16T03:15:04;15.90;99.90
17879;DHT22;9065;51.050;13.758;2022-10-16T03:17:32;15.90;99.90
17879;DHT22;9065;51.050;13.758;2022-10-16T03:20:00;15.90;99.90
17879;DHT22;9065;51.050;13.758;2022-10-16T03:22:28;15.90;99.90
17879;DHT22;9065;51.050;13.758;2022-10-16T03:24:54;15.80;99.90
17879;DHT22;9065;51.050;13.758;2022-10-16T03:27:21;15.90;99.90
17879;DHT22;9065;51.050;13.758;2022-10-16T03:29:48;15.90;99.90
17879;DHT22;9065;51.050;13.758;2022-10-16T03:32:14;15.80;99.90
17879;DHT22;9065;51.050;13.758;2022-10-16T03:34:41;15.80;99.90
17879;DHT22;9065;51.050;13.758;2022-10-16T03:37:08;15.80;99.90
17879;DHT22;9065;51.050;13.758;2022-10-16T03:39:36;15.80;99.90
17879;DHT22;9065;51.050;13.758;2022-10-16T03:42:03;15.80;99.90
17879;DHT22;9065;51.050;13.758;2022-10-16T03:44:30;15.80;99.90
17879;DHT22;9065;51.050;13.758;2022-10-16T03:46:57;15.80;99.90
17879;DHT22;9065;51.050;13.758;2022-10-16T03:49:24;15.80;99.90
17879;DHT22;9065;51.050;13.758;2022-10-16T03:51:50;15.80;99.90
17879;DHT22;9065;51.050;13.758;2022-10-16T03:54:17;15.80;99.90
17879;DHT22;9065;51.050;13.758;2022-10-16T03:56:47;15.70;99.90
17879;DHT22;9065;51.050;13.758;2022-10-16T03:59:20;15.70;99.90
17879;DHT22;9065;51.050;13.758;2022-10-16T04:01:47;15.70;99.90
17879;DHT22;9065;51.050;13.758;2022-10-16T04:04:14;15.70;99.90
17879;DHT22;9065;51.050;13.758;2022-10-16T04:06:41;15.70;99.90
17879;DHT22;9065;51.050;13.758;2022-10-16T04:09:07;15.70;99.90
17879;DHT22;9065;51.050;13.758;2022-10-16T04:11:34;15.70;99.90
17879;DHT22;9065;51.050;13.758;2022-10-16T04:14:03;15.60;99.90
17879;DHT22;9065;51.050;13.758;2022-10-16T04:16:30;15.70;99.90
17879;DHT22;9065;51.050;13.758;2022-10-16T04:18:57;15.60;99.90
17879;DHT22;9065;51.050;13.758;2022-10-16T04:21:25;15.60;99.90
17879;DHT22;9065;51.050;13.758;2022-10-16T04:23:52;15.60;99.90
17879;DHT22;9065;51.050;13.758;2022-10-16T04:26:19;15.60;99.90
17879;DHT22;9065;51.050;13.758;2022-10-16T04:28:45;15.60;99.90
17879;DHT22;9065;51.050;13.758;2022-10-16T04:31:13;15.70;99.90
17879;DHT22;9065;51.050;13.758;2022-10-16T04:33:42;15.70;99.90
17879;DHT22;9065;51.050;13.758;2022-10-16T04:36:09;15.70;99.90
17879;DHT22;9065;51.050;13.758;2022-10-16T04:38:36;15.60;99.90
17879;DHT22;9065;51.050;13.758;2022-10-16T04:41:07;15.60;99.90
17879;DHT22;9065;51.050;13.758;2022-10-16T04:43:34;15.70;99.90
17879;DHT22;9065;51.050;13.758;2022-10-16T04:46:00;15.70;99.90
17879;DHT22;9065;51.050;13.758;2022-10-16T04:48:37;15.60;99.90
17879;DHT22;9065;51.050;13.758;2022-10-16T04:51:05;15.60;99.90
17879;DHT22;9065;51.050;13.758;2022-10-16T04:53:31;15.60;99.90
17879;DHT22;9065;51.050;13.758;2022-10-16T04:55:58;15.60;99.90
17879;DHT22;9065;51.050;13.758;2022-10-16T04:58:25;15.60;99.90
17879;DHT22;9065;51.050;13.758;2022-10-16T05:00:52;15.60;99.90
17879;DHT22;9065;51.050;13.758;2022-10-16T05:03:18;15.60;99.90
17879;DHT22;9065;51.050;13.758;2022-10-16T05:05:48;15.60;99.90
17879;DHT22;9065;51.050;13.758;2022-10-16T05:08:16;15.60;99.90
17879;DHT22;9065;51.050;13.758;2022-10-16T05:10:44;15.60;99.90
17879;DHT22;9065;51.050;13.758;2022-10-16T05:13:11;15.60;99.90
17879;DHT22;9065;51.050;13.758;2022-10-16T05:15:38;15.60;99.90
17879;DHT22;9065;51.050;13.758;2022-10-16T05:18:05;15.60;99.90
17879;DHT22;9065;51.050;13.758;2022-10-16T05:20:32;15.60;99.90
17879;DHT22;9065;51.050;13.758;2022-10-16T05:23:01;15.70;99.90
17879;DHT22;9065;51.050;13.758;2022-10-16T05:25:28;15.70;99.90
17879;DHT22;9065;51.050;13.758;2022-10-16T05:27:54;15.60;99.90
17879;DHT22;9065;51.050;13.758;2022-10-16T05:30:21;15.60;99.90
17879;DHT22;9065;51.050;13.758;2022-10-16T05:32:50;15.70;99.90
17879;DHT22;9065;51.050;13.758;2022-10-16T05:35:18;15.70;99.90
17879;DHT22;9065;51.050;13.758;2022-10-16T05:37:46;15.70;99.90
17879;DHT22;9065;51.050;13.758;2022-10-16T05:40:14;15.70;99.90
17879;DHT22;9065;51.050;13.758;2022-10-16T05:42:42;15.70;99.90
17879;DHT22;9065;51.050;13.758;2022-10-16T05:45:10;15.60;99.90
17879;DHT22;9065;51.050;13.758;2022-10-16T05:47:38;15.60;99.90
17879;DHT22;9065;51.050;13.758;2022-10-16T05:50:05;15.60;99.90
17879;DHT22;9065;51.050;13.758;2022-10-16T05:52:33;15.60;99.90
17879;DHT22;9065;51.050;13.758;2022-10-16T05:54:59;15.60;99.90
17879;DHT22;9065;51.050;13.758;2022-10-16T05:57:28;15.60;99.90
17879;DHT22;9065;51.050;13.758;2022-10-16T05:59:55;15.70;99.90
17879;DHT22;9065;51.050;13.758;2022-10-16T06:02:22;15.70;99.90
17879;DHT22;9065;51.050;13.758;2022-10-16T06:04:49;15.80;99.90
17879;DHT22;9065;51.050;13.758;2022-10-16T06:07:18;15.80;99.90
17879;DHT22;9065;51.050;13.758;2022-10-16T06:09:48;15.70;99.90
17879;DHT22;9065;51.050;13.758;2022-10-16T06:12:15;15.80;99.90
17879;DHT22;9065;51.050;13.758;2022-10-16T06:14:44;15.80;99.90
17879;DHT22;9065;51.050;13.758;2022-10-16T06:17:10;15.80;99.90
17879;DHT22;9065;51.050;13.758;2022-10-16T06:19:37;15.90;99.90
17879;DHT22;9065;51.050;13.758;2022-10-16T06:22:03;15.80;99.90
17879;DHT22;9065;51.050;13.758;2022-10-16T06:24:30;15.80;99.90
17879;DHT22;9065;51.050;13.758;2022-10-16T06:26:57;15.90;99.90
17879;DHT22;9065;51.050;13.758;2022-10-16T06:29:23;15.90;99.90
17879;DHT22;9065;51.050;13.758;2022-10-16T06:31:52;16.00;99.90
17879;DHT22;9065;51.050;13.758;2022-10-16T06:34:19;16.00;99.90
17879;DHT22;9065;51.050;13.758;2022-10-16T06:36:46;16.10;99.90
17879;DHT22;9065;51.050;13.758;2022-10-16T06:39:13;16.10;99.90
17879;DHT22;9065;51.050;13.758;2022-10-16T06:41:39;16.00;99.90
17879;DHT22;9065;51.050;13.758;2022-10-16T06:44:06;16.10;99.90
17879;DHT22;9065;51.050;13.758;2022-10-16T06:46:33;16.10;99.90
17879;DHT22;9065;51.050;13.758;2022-10-16T06:49:01;16.20;99.90
17879;DHT22;9065;51.050;13.758;2022-10-16T06:51:28;16.20;99.90
17879;DHT22;9065;51.050;13.758;2022-10-16T06:53:57;16.30;99.90
17879;DHT22;9065;51.050;13.758;2022-10-16T06:56:27;16.40;99.90
17879;DHT22;9065;51.050;13.758;2022-10-16T06:58:56;16.50;99.90
17879;DHT22;9065;51.050;13.758;2022-10-16T07:01:24;16.60;99.90
17879;DHT22;9065;51.050;13.758;2022-10-16T07:03:51;16.70;99.90
17879;DHT22;9065;51.050;13.758;2022-10-16T07:06:22;16.80;99.90
17879;DHT22;9065;51.050;13.758;2022-10-16T07:08:49;16.80;99.90
17879;DHT22;9065;51.050;13.758;2022-10-16T07:11:19;16.80;99.90
17879;DHT22;9065;51.050;13.758;2022-10-16T07:13:47;16.80;99.90
17879;DHT22;9065;51.050;13.758;2022-10-16T07:16:16;16.70;99.90
17879;DHT22;9065;51.050;13.758;2022-10-16T07:18:44;16.80;99.90
17879;DHT22;9065;51.050;13.758;2022-10-16T07:21:13;16.80;99.90
17879;DHT22;9065;51.050;13.758;2022-10-16T07:23:43;16.70;99.90
17879;DHT22;9065;51.050;13.758;2022-10-16T07:26:11;16.80;99.90
17879;DHT22;9065;51.050;13.758;2022-10-16T07:28:38;16.90;99.90
17879;DHT22;9065;51.050;13.758;2022-10-16T07:31:09;17.00;99.90
17879;DHT22;9065;51.050;13.758;2022-10-16T07:33:37;17.00;99.90
17879;DHT22;9065;51.050;13.758;2022-10-16T07:36:05;17.10;99.90
17879;DHT22;9065;51.050;13.758;2022-10-16T07:38:32;17.20;99.90
17879;DHT22;9065;51.050;13.758;2022-10-16T07:41:02;17.20;99.90
17879;DHT22;9065;51.050;13.758;2022-10-16T07:43:30;17.10;99.90
17879;DHT22;9065;51.050;13.758;2022-10-16T07:45:57;17.10;99.90
17879;DHT22;9065;51.050;13.758;2022-10-16T07:48:27;17.20;99.90
17879;DHT22;9065;51.050;13.758;2022-10-16T07:50:57;17.20;99.90
17879;DHT22;9065;51.050;13.758;2022-10-16T07:53:24;17.20;99.90
17879;DHT22;9065;51.050;13.758;2022-10-16T07:55:51;17.30;99.90
17879;DHT22;9065;51.050;13.758;2022-10-16T07:58:19;17.30;99.90
17879;DHT22;9065;51.050;13.758;2022-10-16T08:00:46;17.40;99.90
17879;DHT22;9065;51.050;13.758;2022-10-16T08:03:13;17.40;99.90
17879;DHT22;9065;51.050;13.758;2022-10-16T08:05:42;17.50;99.90
17879;DHT22;9065;51.050;13.758;2022-10-16T08:08:12;17.50;99.90
17879;DHT22;9065;51.050;13.758;2022-10-16T08:10:40;17.60;99.90
17879;DHT22;9065;51.050;13.758;2022-10-16T08:13:07;17.70;99.90
17879;DHT22;9065;51.050;13.758;2022-10-16T08:15:36;17.70;99.90
17879;DHT22;9065;51.050;13.758;2022-10-16T08:18:04;17.80;99.90
17879;DHT22;9065;51.050;13.758;2022-10-16T08:20:32;17.80;99.90
17879;DHT22;9065;51.050;13.758;2022-10-16T08:22:59;17.90;99.90
17879;DHT22;9065;51.050;13.758;2022-10-16T08:25:27;17.90;99.90
17879;DHT22;9065;51.050;13.758;2022-10-16T08:27:55;17.80;99.90
17879;DHT22;9065;51.050;13.758;2022-10-16T08:30:23;17.90;99.90
17879;DHT22;9065;51.050;13.758;2022-10-16T08:32:53;18.00;99.90
17879;DHT22;9065;51.050;13.758;2022-10-16T08:35:20;18.10;99.90
17879;DHT22;9065;51.050;13.758;2022-10-16T08:37:47;18.20;99.90
17879;DHT22;9065;51.050;13.758;2022-10-16T08:40:19;18.30;99.90
17879;DHT22;9065;51.050;13.758;2022-10-16T08:42:54;18.40;99.90
17879;DHT22;9065;51.050;13.758;2022-10-16T08:45:38;18.50;99.90
17879;DHT22;9065;51.050;13.758;2022-10-16T08:48:17;18.60;99.90
17879;DHT22;9065;51.050;13.758;2022-10-16T08:50:48;18.80;99.90
17879;DHT22;9065;51.050;13.758;2022-10-16T08:53:18;18.80;99.90
17879;DHT22;9065;51.050;13.758;2022-10-16T08:55:50;18.90;99.90
17879;DHT22;9065;51.050;13.758;2022-10-16T08:58:19;18.90;99.90
17879;DHT22;9065;51.050;13.758;2022-10-16T09:00:48;19.00;99.90
17879;DHT22;9065;51.050;13.758;2022-10-16T09:03:28;19.10;99.90
17879;DHT22;9065;51.050;13.758;2022-10-16T09:06:17;19.20;99.90
17879;DHT22;9065;51.050;13.758;2022-10-16T09:09:00;19.30;99.90
17879;DHT22;9065;51.050;13.758;2022-10-16T09:11:39;19.50;99.90
17879;DHT22;9065;51.050;13.758;2022-10-16T09:14:22;19.60;99.90
17879;DHT22;9065;51.050;13.758;2022-10-16T09:16:57;19.70;99.90
17879;DHT22;9065;51.050;13.758;2022-10-16T09:19:32;19.80;99.90
17879;DHT22;9065;51.050;13.758;2022-10-16T09:22:07;19.80;99.90
17879;DHT22;9065;51.050;13.758;2022-10-16T09:24:36;19.90;99.90
17879;DHT22;9065;51.050;13.758;2022-10-16T09:27:03;20.00;99.90
17879;DHT22;9065;51.050;13.758;2022-10-16T09:29:33;20.20;99.90
17879;DHT22;9065;51.050;13.758;2022-10-16T09:32:12;20.30;99.90
17879;DHT22;9065;51.050;13.758;2022-10-16T09:34:45;20.40;99.90
17879;DHT22;9065;51.050;13.758;2022-10-16T09:37:17;20.50;99.90
17879;DHT22;9065;51.050;13.758;2022-10-16T09:39:45;20.50;99.90
17879;DHT22;9065;51.050;13.758;2022-10-16T09:42:15;20.40;99.90
17879;DHT22;9065;51.050;13.758;2022-10-16T09:44:42;20.50;99.90
17879;DHT22;9065;51.050;13.758;2022-10-16T09:47:14;20.60;99.90
17879;DHT22;9065;51.050;13.758;2022-10-16T09:49:52;20.80;99.90
17879;DHT22;9065;51.050;13.758;2022-10-16T09:52:21;20.80;99.90
17879;DHT22;9065;51.050;13.758;2022-10-16T09:54:50;20.80;99.90
17879;DHT22;9065;51.050;13.758;2022-10-16T09:57:17;20.80;99.90
17879;DHT22;9065;51.050;13.758;2022-10-16T09:59:47;20.90;99.90
17879;DHT22;9065;51.050;13.758;2022-10-16T10:02:16;21.10;99.90
17879;DHT22;9065;51.050;13.758;2022-10-16T10:04:49;21.30;99.90
17879;DHT22;9065;51.050;13.758;2022-10-16T10:07:23;21.60;99.90
17879;DHT22;9065;51.050;13.758;2022-10-16T10:09:51;21.90;99.90
17879;DHT22;9065;51.050;13.758;2022-10-16T10:12:21;22.20;99.90
17879;DHT22;9065;51.050;13.758;2022-10-16T10:14:50;22.30;99.90
17879;DHT22;9065;51.050;13.758;2022-10-16T10:17:19;22.30;99.90
17879;DHT22;9065;51.050;13.758;2022-10-16T10:19:49;22.20;99.90
17879;DHT22;9065;51.050;13.758;2022-10-16T10:22:24;22.30;99.90
17879;DHT22;9065;51.050;13.758;2022-10-16T10:25:10;22.50;99.90
17879;DHT22;9065;51.050;13.758;2022-10-16T10:27:47;23.40;99.90
17879;DHT22;9065;51.050;13.758;2022-10-16T10:30:20;23.90;99.90
17879;DHT22;9065;51.050;13.758;2022-10-16T10:32:57;24.00;99.90
17879;DHT22;9065;51.050;13.758;2022-10-16T10:35:39;24.90;99.90
17879;DHT22;9065;51.050;13.758;2022-10-16T10:38:32;24.70;99.90
17879;DHT22;9065;51.050;13.758;2022-10-16T10:41:17;25.60;99.90
17879;DHT22;9065;51.050;13.758;2022-10-16T10:43:57;26.80;99.90
17879;DHT22;9065;51.050;13.758;2022-10-16T10:46:35;26.90;99.90
17879;DHT22;9065;51.050;13.758;2022-10-16T10:49:22;27.00;99.90
17879;DHT22;9065;51.050;13.758;2022-10-16T10:51:58;26.70;99.90
17879;DHT22;9065;51.050;13.758;2022-10-16T10:54:38;26.40;99.90
17879;DHT22;9065;51.050;13.758;2022-10-16T10:57:10;26.10;99.90
17879;DHT22;9065;51.050;13.758;2022-10-16T11:00:02;25.60;99.90
17879;DHT22;9065;51.050;13.758;2022-10-16T11:02:35;25.50;99.90
17879;DHT22;9065;51.050;13.758;2022-10-16T11:05:27;24.80;99.90
17879;DHT22;9065;51.050;13.758;2022-10-16T11:07:59;24.40;99.90
17879;DHT22;9065;51.050;13.758;2022-10-16T11:10:32;24.30;99.90
17879;DHT22;9065;51.050;13.758;2022-10-16T11:13:15;23.90;99.90
17879;DHT22;9065;51.050;13.758;2022-10-16T11:15:45;23.70;99.90
17879;DHT22;9065;51.050;13.758;2022-10-16T11:18:18;23.60;99.90
17879;DHT22;9065;51.050;13.758;2022-10-16T11:20:53;23.80;99.90
17879;DHT22;9065;51.050;13.758;2022-10-16T11:23:28;23.90;99.90
17879;DHT22;9065;51.050;13.758;2022-10-16T11:26:02;24.10;99.90
17879;DHT22;9065;51.050;13.758;2022-10-16T11:28:33;24.30;99.90
17879;DHT22;9065;51.050;13.758;2022-10-16T11:31:05;24.40;99.90
17879;DHT22;9065;51.050;13.758;2022-10-16T11:33:39;24.10;99.90
17879;DHT22;9065;51.050;13.758;2022-10-16T11:36:12;23.90;99.90
17879;DHT22;9065;51.050;13.758;2022-10-16T11:38:47;23.60;99.90
17879;DHT22;9065;51.050;13.758;2022-10-16T11:41:24;23.30;99.90
17879;DHT22;9065;51.050;13.758;2022-10-16T11:44:02;23.20;99.90
17879;DHT22;9065;51.050;13.758;2022-10-16T11:46:37;23.00;99.90
17879;DHT22;9065;51.050;13.758;2022-10-16T11:49:11;23.00;99.90
17879;DHT22;9065;51.050;13.758;2022-10-16T11:51:43;22.90;99.90
17879;DHT22;9065;51.050;13.758;2022-10-16T11:54:19;22.90;99.90
17879;DHT22;9065;51.050;13.758;2022-10-16T11:56:51;22.90;99.90
17879;DHT22;9065;51.050;13.758;2022-10-16T11:59:26;22.90;99.90
17879;DHT22;9065;51.050;13.758;2022-10-16T12:02:02;23.10;99.90
17879;DHT22;9065;51.050;13.758;2022-10-16T12:04:41;23.20;99.90
17879;DHT22;9065;51.050;13.758;2022-10-16T12:07:14;23.20;99.90
17879;DHT22;9065;51.050;13.758;2022-10-16T12:09:43;23.10;99.90
17879;DHT22;9065;51.050;13.758;2022-10-16T12:12:25;23.10;99.90
17879;DHT22;9065;51.050;13.758;2022-10-16T12:15:00;23.00;99.90
17879;DHT22;9065;51.050;13.758;2022-10-16T12:17:34;23.00;99.90
17879;DHT22;9065;51.050;13.758;2022-10-16T12:20:25;23.00;99.90
17879;DHT22;9065;51.050;13.758;2022-10-16T12:22:54;23.00;99.90
17879;DHT22;9065;51.050;13.758;2022-10-16T12:25:23;22.90;99.90
17879;DHT22;9065;51.050;13.758;2022-10-16T12:28:17;22.90;99.90
17879;DHT22;9065;51.050;13.758;2022-10-16T12:30:53;22.80;99.90
17879;DHT22;9065;51.050;13.758;2022-10-16T12:33:23;22.80;99.90
17879;DHT22;9065;51.050;13.758;2022-10-16T12:35:52;22.80;99.90
17879;DHT22;9065;51.050;13.758;2022-10-16T12:38:21;22.90;99.90
17879;DHT22;9065;51.050;13.758;2022-10-16T12:40:57;22.80;99.90
17879;DHT22;9065;51.050;13.758;2022-10-16T12:43:38;22.80;99.90
17879;DHT22;9065;51.050;13.758;2022-10-16T12:46:21;22.80;99.90
17879;DHT22;9065;51.050;13.758;2022-10-16T12:48:50;22.70;99.90
17879;DHT22;9065;51.050;13.758;2022-10-16T12:51:25;22.80;99.90
17879;DHT22;9065;51.050;13.758;2022-10-16T12:53:59;22.80;99.90
17879;DHT22;9065;51.050;13.758;2022-10-16T12:56:37;22.80;99.90
17879;DHT22;9065;51.050;13.758;2022-10-16T12:59:19;22.80;99.90
17879;DHT22;9065;51.050;13.758;2022-10-16T13:02:01;22.90;99.90
17879;DHT22;9065;51.050;13.758;2022-10-16T13:05:08;22.90;99.90
17879;DHT22;9065;51.050;13.758;2022-10-16T13:07:48;23.00;99.90
17879;DHT22;9065;51.050;13.758;2022-10-16T13:10:25;22.90;99.90
17879;DHT22;9065;51.050;13.758;2022-10-16T13:13:13;22.90;99.90
17879;DHT22;9065;51.050;13.758;2022-10-16T13:16:13;22.90;99.90
17879;DHT22;9065;51.050;13.758;2022-10-16T13:18:55;22.90;99.90
17879;DHT22;9065;51.050;13.758;2022-10-16T13:21:34;22.90;99.90
17879;DHT22;9065;51.050;13.758;2022-10-16T13:24:13;22.90;99.90
17879;DHT22;9065;51.050;13.758;2022-10-16T13:26:46;22.80;99.90
17879;DHT22;9065;51.050;13.758;2022-10-16T13:29:15;22.70;99.90
17879;DHT22;9065;51.050;13.758;2022-10-16T13:31:45;22.70;99.90
17879;DHT22;9065;51.050;13.758;2022-10-16T13:34:15;22.70;99.90
17879;DHT22;9065;51.050;13.758;2022-10-16T13:36:46;22.70;99.90
17879;DHT22;9065;51.050;13.758;2022-10-16T13:39:21;22.60;99.90
17879;DHT22;9065;51.050;13.758;2022-10-16T13:41:58;22.50;99.90
17879;DHT22;9065;51.050;13.758;2022-10-16T13:44:35;22.50;99.90
17879;DHT22;9065;51.050;13.758;2022-10-16T13:47:04;22.40;99.90
17879;DHT22;9065;51.050;13.758;2022-10-16T13:49:31;22.40;99.90
17879;DHT22;9065;51.050;13.758;2022-10-16T13:51:59;22.30;99.90
17879;DHT22;9065;51.050;13.758;2022-10-16T13:54:27;22.20;99.90
17879;DHT22;9065;51.050;13.758;2022-10-16T13:56:55;22.10;99.90
17879;DHT22;9065;51.050;13.758;2022-10-16T13:59:24;22.00;99.90
17879;DHT22;9065;51.050;13.758;2022-10-16T14:01:53;22.00;99.90
17879;DHT22;9065;51.050;13.758;2022-10-16T14:04:22;22.00;99.90
17879;DHT22;9065;51.050;13.758;2022-10-16T14:06:50;22.00;99.90
17879;DHT22;9065;51.050;13.758;2022-10-16T14:09:22;22.10;99.90
17879;DHT22;9065;51.050;13.758;2022-10-16T14:11:53;22.00;99.90
17879;DHT22;9065;51.050;13.758;2022-10-16T14:14:23;22.00;99.90
17879;DHT22;9065;51.050;13.758;2022-10-16T14:16:51;22.00;99.90
17879;DHT22;9065;51.050;13.758;2022-10-16T14:19:22;22.00;99.90
17879;DHT22;9065;51.050;13.758;2022-10-16T14:21:50;21.90;99.90
17879;DHT22;9065;51.050;13.758;2022-10-16T14:24:26;21.90;99.90
17879;DHT22;9065;51.050;13.758;2022-10-16T14:26:54;22.00;99.90
17879;DHT22;9065;51.050;13.758;2022-10-16T14:29:23;22.00;99.90
17879;DHT22;9065;51.050;13.758;2022-10-16T14:31:56;22.00;99.90
17879;DHT22;9065;51.050;13.758;2022-10-16T14:34:29;22.10;99.90
17879;DHT22;9065;51.050;13.758;2022-10-16T14:36:59;22.00;99.90
17879;DHT22;9065;51.050;13.758;2022-10-16T14:39:30;22.00;99.90
17879;DHT22;9065;51.050;13.758;2022-10-16T14:41:57;21.90;99.90
17879;DHT22;9065;51.050;13.758;2022-10-16T14:44:28;22.00;99.90
17879;DHT22;9065;51.050;13.758;2022-10-16T14:46:56;21.90;99.90
17879;DHT22;9065;51.050;13.758;2022-10-16T14:49:26;21.80;99.90
17879;DHT22;9065;51.050;13.758;2022-10-16T14:51:54;21.80;99.90
17879;DHT22;9065;51.050;13.758;2022-10-16T14:54:21;21.70;99.90
17879;DHT22;9065;51.050;13.758;2022-10-16T14:56:50;21.70;99.90
17879;DHT22;9065;51.050;13.758;2022-10-16T14:59:22;21.70;99.90
17879;DHT22;9065;51.050;13.758;2022-10-16T15:01:51;21.70;99.90
17879;DHT22;9065;51.050;13.758;2022-10-16T15:04:19;21.70;99.90
17879;DHT22;9065;51.050;13.758;2022-10-16T15:06:48;21.60;99.90
17879;DHT22;9065;51.050;13.758;2022-10-16T15:09:14;21.60;99.90
17879;DHT22;9065;51.050;13.758;2022-10-16T15:11:41;21.60;99.90
17879;DHT22;9065;51.050;13.758;2022-10-16T15:14:11;21.50;99.90
17879;DHT22;9065;51.050;13.758;2022-10-16T15:16:39;21.50;99.90
17879;DHT22;9065;51.050;13.758;2022-10-16T15:19:06;21.40;99.90
17879;DHT22;9065;51.050;13.758;2022-10-16T15:21:34;21.30;99.90
17879;DHT22;9065;51.050;13.758;2022-10-16T15:24:08;21.10;99.90
17879;DHT22;9065;51.050;13.758;2022-10-16T15:26:35;21.00;99.90
17879;DHT22;9065;51.050;13.758;2022-10-16T15:29:03;21.00;99.90
17879;DHT22;9065;51.050;13.758;2022-10-16T15:31:30;21.00;99.90
17879;DHT22;9065;51.050;13.758;2022-10-16T15:33:57;20.80;99.90
17879;DHT22;9065;51.050;13.758;2022-10-16T15:36:30;20.80;99.90
17879;DHT22;9065;51.050;13.758;2022-10-16T15:38:59;20.70;99.90
17879;DHT22;9065;51.050;13.758;2022-10-16T15:41:27;20.70;99.90
17879;DHT22;9065;51.050;13.758;2022-10-16T15:43:56;20.60;99.90
17879;DHT22;9065;51.050;13.758;2022-10-16T15:46:24;20.60;99.90
17879;DHT22;9065;51.050;13.758;2022-10-16T15:48:51;20.40;99.90
17879;DHT22;9065;51.050;13.758;2022-10-16T15:51:22;20.30;99.90